createdAt,value
2019-01-26T00:00:49.387Z,-1.40
2019-01-26T00:03:20.240Z,-1.40
2019-01-26T00:05:51.135Z,-1.30
2019-01-26T00:08:22.162Z,-1.30
2019-01-26T00:10:53.011Z,-1.30
2019-01-26T00:13:24.016Z,-1.30
2019-01-26T00:15:54.883Z,-1.30
2019-01-26T00:18:25.660Z,-1.30
2019-01-26T00:20:56.602Z,-1.30
2019-01-26T00:23:27.621Z,-1.30
2019-01-26T00:25:58.473Z,-1.30
2019-01-26T00:28:29.374Z,-1.30
2019-01-26T00:31:00.250Z,-1.30
2019-01-26T00:33:31.032Z,-1.30
2019-01-26T00:36:01.724Z,-1.30
2019-01-26T00:38:32.508Z,-1.30
2019-01-26T00:41:03.298Z,-1.40
2019-01-26T00:43:34.176Z,-1.30
2019-01-26T00:46:05.166Z,-1.30
2019-01-26T00:48:36.002Z,-1.30
2019-01-26T00:51:06.835Z,-1.30
2019-01-26T00:53:37.408Z,-1.20
2019-01-26T00:56:08.333Z,-1.30
2019-01-26T00:58:39.267Z,-1.30
2019-01-26T01:01:10.402Z,-1.30
2019-01-26T01:03:41.339Z,-1.30
2019-01-26T01:06:12.293Z,-1.30
2019-01-26T01:08:43.049Z,-1.30
2019-01-26T01:11:13.977Z,-1.20
2019-01-26T01:13:44.761Z,-1.20
2019-01-26T01:16:15.384Z,-1.20
2019-01-26T01:18:46.188Z,-1.20
2019-01-26T01:21:17.194Z,-1.20
2019-01-26T01:23:48.017Z,-1.20
2019-01-26T01:26:18.789Z,-1.20
2019-01-26T01:28:49.807Z,-1.20
2019-01-26T01:31:20.397Z,-1.20
2019-01-26T01:33:50.952Z,-1.20
2019-01-26T01:36:21.614Z,-1.20
2019-01-26T01:38:52.533Z,-1.20
2019-01-26T01:41:23.177Z,-1.20
2019-01-26T01:43:54.212Z,-1.20
2019-01-26T01:46:25.116Z,-1.20
2019-01-26T01:48:55.916Z,-1.20
2019-01-26T01:51:26.816Z,-1.20
2019-01-26T01:53:57.535Z,-1.10
2019-01-26T01:56:28.488Z,-1.10
2019-01-26T01:58:59.157Z,-1.10
2019-01-26T02:01:29.908Z,-1.10
2019-01-26T02:04:00.995Z,-1.10
2019-01-26T02:06:31.699Z,-1.10
2019-01-26T02:09:02.703Z,-1.10
2019-01-26T02:11:33.374Z,-1.10
2019-01-26T02:14:04.446Z,-1.10
2019-01-26T02:16:35.135Z,-1.10
2019-01-26T02:19:05.731Z,-1.10
2019-01-26T02:21:36.503Z,-1.10
2019-01-26T02:24:07.111Z,-1.10
2019-01-26T02:26:38.137Z,-1.10
2019-01-26T02:29:08.879Z,-1.10
2019-01-26T02:31:39.642Z,-1.10
2019-01-26T02:34:10.475Z,-1.00
2019-01-26T02:36:41.151Z,-1.00
2019-01-26T02:39:11.939Z,-1.10
2019-01-26T02:41:42.727Z,-1.00
2019-01-26T02:44:13.360Z,-1.00
2019-01-26T02:46:44.141Z,-1.10
2019-01-26T02:49:14.889Z,-1.10
2019-01-26T02:51:45.800Z,-1.10
2019-01-26T02:54:16.800Z,-1.00
2019-01-26T02:56:47.693Z,-1.00
2019-01-26T02:59:18.335Z,-1.00
2019-01-26T03:01:49.421Z,-1.00
2019-01-26T03:04:20.196Z,-1.00
2019-01-26T03:06:50.792Z,-1.00
2019-01-26T03:09:21.464Z,-1.10
2019-01-26T03:11:52.028Z,-1.00
2019-01-26T03:14:22.786Z,-1.00
2019-01-26T03:16:53.768Z,-1.00
2019-01-26T03:19:24.989Z,-1.00
2019-01-26T03:21:55.715Z,-1.00
2019-01-26T03:24:26.572Z,-1.00
2019-01-26T03:26:57.282Z,-1.00
2019-01-26T03:29:29.784Z,-1.00
2019-01-26T03:32:00.516Z,-1.00
2019-01-26T03:34:31.610Z,-1.00
2019-01-26T03:37:04.186Z,-1.00
2019-01-26T03:39:35.063Z,-1.00
2019-01-26T03:42:05.772Z,-1.00
2019-01-26T03:44:36.502Z,-1.00
2019-01-26T03:47:13.643Z,-0.90
2019-01-26T03:49:40.235Z,-0.90
2019-01-26T03:52:10.909Z,-1.00
2019-01-26T03:54:41.982Z,-1.00
2019-01-26T03:57:12.579Z,-1.00
2019-01-26T03:59:43.265Z,-1.00
2019-01-26T04:02:13.939Z,-0.90
2019-01-26T04:04:44.601Z,-0.90
2019-01-26T04:07:15.470Z,-0.90
2019-01-26T04:09:45.995Z,-0.90
2019-01-26T04:12:16.967Z,-1.00
2019-01-26T04:14:47.676Z,-0.90
2019-01-26T04:17:22.029Z,-0.90
2019-01-26T04:19:50.745Z,-1.00
2019-01-26T04:22:21.603Z,-0.90
2019-01-26T04:24:52.633Z,-0.90
2019-01-26T04:27:23.418Z,-0.90
2019-01-26T04:29:54.152Z,-0.90
2019-01-26T04:32:24.678Z,-0.90
2019-01-26T04:34:55.515Z,-0.90
2019-01-26T04:37:29.421Z,-0.90
2019-01-26T04:40:00.297Z,-0.90
2019-01-26T04:42:31.066Z,-0.90
2019-01-26T04:45:01.886Z,-0.90
2019-01-26T04:47:32.563Z,-0.90
2019-01-26T04:50:03.649Z,-0.90
2019-01-26T04:52:34.452Z,-0.90
2019-01-26T04:55:06.744Z,-0.90
2019-01-26T04:57:37.346Z,-0.90
2019-01-26T05:00:20.095Z,-0.90
2019-01-26T05:02:50.718Z,-0.90
2019-01-26T05:05:21.766Z,-0.90
2019-01-26T05:07:52.705Z,-0.90
2019-01-26T05:10:23.463Z,-0.80
2019-01-26T05:12:54.089Z,-0.90
2019-01-26T05:15:24.753Z,-0.80
2019-01-26T05:17:55.399Z,-0.80
2019-01-26T05:20:26.436Z,-0.90
2019-01-26T05:22:57.126Z,-0.80
2019-01-26T05:25:27.806Z,-0.80
2019-01-26T05:27:58.461Z,-0.80
2019-01-26T05:30:29.174Z,-0.80
2019-01-26T05:32:59.860Z,-0.80
2019-01-26T05:35:30.991Z,-0.80
2019-01-26T05:38:01.863Z,-0.80
2019-01-26T05:40:32.665Z,-0.80
2019-01-26T05:43:03.253Z,-0.80
2019-01-26T05:45:34.350Z,-0.80
2019-01-26T05:48:05.218Z,-0.80
2019-01-26T05:50:35.863Z,-0.80
2019-01-26T05:53:06.551Z,-0.80
2019-01-26T05:55:37.118Z,-0.80
2019-01-26T05:58:08.193Z,-0.90
2019-01-26T06:00:38.993Z,-0.70
2019-01-26T06:03:09.801Z,-0.40
2019-01-26T06:05:40.493Z,-0.20
2019-01-26T06:08:11.251Z,0.00
2019-01-26T06:10:41.921Z,0.10
2019-01-26T06:13:12.807Z,0.20
2019-01-26T06:15:43.596Z,0.30
2019-01-26T06:18:14.388Z,0.40
2019-01-26T06:20:45.519Z,0.40
2019-01-26T06:23:16.618Z,0.50
2019-01-26T06:25:47.424Z,0.50
2019-01-26T06:28:18.304Z,0.50
2019-01-26T06:30:49.067Z,0.50
2019-01-26T06:33:19.872Z,0.50
2019-01-26T06:35:50.640Z,0.50
2019-01-26T06:38:21.322Z,0.60
2019-01-26T06:40:52.303Z,0.60
2019-01-26T06:43:24.358Z,0.60
2019-01-26T06:45:55.413Z,0.60
2019-01-26T06:48:26.170Z,0.60
2019-01-26T06:50:56.869Z,0.60
2019-01-26T06:53:27.554Z,0.60
2019-01-26T06:55:58.316Z,0.60
2019-01-26T06:58:29.282Z,0.60
2019-01-26T07:01:00.422Z,0.60
2019-01-26T07:03:31.142Z,0.60
2019-01-26T07:06:06.528Z,0.60
2019-01-26T07:08:41.969Z,0.60
2019-01-26T07:11:13.466Z,0.60
2019-01-26T07:13:44.174Z,0.60
2019-01-26T07:16:16.764Z,0.60
2019-01-26T07:18:47.589Z,0.70
2019-01-26T07:21:18.438Z,0.70
2019-01-26T07:23:49.077Z,0.70
2019-01-26T07:26:20.023Z,0.70
2019-01-26T07:28:50.978Z,0.70
2019-01-26T07:31:21.398Z,0.70
2019-01-26T07:33:52.219Z,0.70
2019-01-26T07:36:23.250Z,0.70
2019-01-26T07:38:54.191Z,0.70
2019-01-26T07:41:24.861Z,0.70
2019-01-26T07:43:56.425Z,0.70
2019-01-26T07:46:27.273Z,0.70
2019-01-26T07:48:58.288Z,0.70
2019-01-26T07:51:29.158Z,0.70
2019-01-26T07:54:00.030Z,0.70
2019-01-26T07:56:31.067Z,0.70
2019-01-26T07:59:01.811Z,0.70
2019-01-26T08:01:34.887Z,0.70
2019-01-26T08:04:05.836Z,0.70
2019-01-26T08:06:37.761Z,0.70
2019-01-26T08:09:13.520Z,0.70
2019-01-26T08:11:44.720Z,0.70
2019-01-26T08:14:15.920Z,0.70
2019-01-26T08:16:46.665Z,0.70
2019-01-26T08:19:17.762Z,0.70
2019-01-26T08:21:48.450Z,0.70
2019-01-26T08:24:19.145Z,0.70
2019-01-26T08:26:50.012Z,0.70
2019-01-26T08:29:22.577Z,0.70
2019-01-26T08:31:53.415Z,0.70
2019-01-26T08:34:24.123Z,0.70
2019-01-26T08:36:54.897Z,0.70
2019-01-26T08:39:26.067Z,0.80
2019-01-26T08:41:56.984Z,0.70
2019-01-26T08:44:30.061Z,0.70
2019-01-26T08:47:01.418Z,0.70
2019-01-26T08:49:32.521Z,0.70
2019-01-26T08:52:03.485Z,0.80
2019-01-26T08:54:34.287Z,0.80
2019-01-26T08:57:05.156Z,0.80
2019-01-26T08:59:36.043Z,0.80
2019-01-26T09:02:11.128Z,0.80
2019-01-26T09:04:42.115Z,0.80
2019-01-26T09:07:12.753Z,0.80
2019-01-26T09:09:43.542Z,0.80
2019-01-26T09:12:17.198Z,0.90
2019-01-26T09:14:48.172Z,0.90
2019-01-26T09:17:18.752Z,0.90
2019-01-26T09:19:49.592Z,0.90
2019-01-26T09:22:20.850Z,0.90
2019-01-26T09:24:51.396Z,0.90
2019-01-26T09:27:23.720Z,0.90
2019-01-26T09:29:54.975Z,0.90
2019-01-26T09:32:25.788Z,0.90
2019-01-26T09:34:58.390Z,1.00
2019-01-26T09:37:29.288Z,1.00
2019-01-26T09:40:00.200Z,1.00
2019-01-26T09:42:30.964Z,1.00
2019-01-26T09:45:01.746Z,1.00
2019-01-26T09:47:32.361Z,1.00
2019-01-26T09:50:03.502Z,1.00
2019-01-26T09:52:34.539Z,1.00
2019-01-26T09:55:08.115Z,1.00
2019-01-26T09:57:38.795Z,1.00
2019-01-26T10:00:12.333Z,1.00
2019-01-26T10:02:43.141Z,1.00
2019-01-26T10:05:14.281Z,1.00
2019-01-26T10:07:45.024Z,1.00
2019-01-26T10:10:16.906Z,1.00
2019-01-26T10:12:47.805Z,1.10
2019-01-26T10:15:27.472Z,1.10
2019-01-26T10:17:58.376Z,1.20
2019-01-26T10:20:31.538Z,1.30
2019-01-26T10:23:02.451Z,1.30
2019-01-26T10:25:33.292Z,1.40
2019-01-26T10:28:04.539Z,1.40
2019-01-26T10:30:44.993Z,1.50
2019-01-26T10:33:15.694Z,1.50
2019-01-26T10:35:57.314Z,1.50
2019-01-26T10:38:29.647Z,1.40
2019-01-26T10:41:03.407Z,1.40
2019-01-26T10:43:35.659Z,1.40
2019-01-26T10:46:06.523Z,1.40
2019-01-26T10:48:37.556Z,1.40
2019-01-26T10:51:08.246Z,1.40
2019-01-26T10:53:38.856Z,1.40
2019-01-26T10:56:09.737Z,1.40
2019-01-26T10:58:40.828Z,1.40
2019-01-26T11:01:13.150Z,1.40
2019-01-26T11:03:43.997Z,1.40
2019-01-26T11:06:14.989Z,1.40
2019-01-26T11:08:46.111Z,1.40
2019-01-26T11:11:17.255Z,1.40
2019-01-26T11:13:48.158Z,1.40
2019-01-26T11:16:19.138Z,1.40
2019-01-26T11:18:50.279Z,1.40
2019-01-26T11:21:21.276Z,1.40
2019-01-26T11:23:52.356Z,1.40
2019-01-26T11:26:23.160Z,1.40
2019-01-26T11:28:53.951Z,1.40
2019-01-26T11:31:24.949Z,1.40
2019-01-26T11:33:55.917Z,1.40
2019-01-26T11:36:26.763Z,1.40
2019-01-26T11:38:57.433Z,1.40
2019-01-26T11:41:28.349Z,1.40
2019-01-26T11:43:59.457Z,1.40
2019-01-26T11:46:30.301Z,1.40
2019-01-26T11:49:01.094Z,1.40
2019-01-26T11:51:33.347Z,1.40
2019-01-26T11:54:04.164Z,1.40
2019-01-26T11:56:46.635Z,1.40
2019-01-26T11:59:18.793Z,1.50
2019-01-26T12:01:53.793Z,1.50
2019-01-26T12:04:28.803Z,1.40
2019-01-26T12:07:01.301Z,1.40
2019-01-26T12:09:35.199Z,1.30
2019-01-26T12:12:08.990Z,1.30
2019-01-26T12:14:41.401Z,1.30
2019-01-26T12:17:12.372Z,1.30
2019-01-26T12:19:43.265Z,1.20
2019-01-26T12:22:15.601Z,1.30
2019-01-26T12:24:46.357Z,1.30
2019-01-26T12:27:17.350Z,1.20
2019-01-26T12:29:47.921Z,1.20
2019-01-26T12:32:18.466Z,1.20
2019-01-26T12:34:48.987Z,1.20
2019-01-26T12:37:19.843Z,1.20
2019-01-26T12:39:50.545Z,1.20
2019-01-26T12:42:21.315Z,1.20
2019-01-26T12:44:52.281Z,1.20
2019-01-26T12:47:23.346Z,1.20
2019-01-26T12:49:54.150Z,1.20
2019-01-26T12:52:25.072Z,1.20
2019-01-26T12:54:56.349Z,1.20
2019-01-26T12:57:27.382Z,1.20
2019-01-26T12:59:57.986Z,1.20
2019-01-26T13:02:28.748Z,1.50
2019-01-26T13:05:00.736Z,2.10
2019-01-26T13:07:31.373Z,2.50
2019-01-26T13:10:03.140Z,2.70
2019-01-26T13:12:33.988Z,2.90
2019-01-26T13:15:05.650Z,3.00
2019-01-26T13:17:36.548Z,3.00
2019-01-26T13:20:10.137Z,3.10
2019-01-26T13:22:41.272Z,3.10
2019-01-26T13:25:14.394Z,3.20
2019-01-26T13:27:45.195Z,3.20
2019-01-26T13:30:22.188Z,3.20
2019-01-26T13:32:52.934Z,3.30
2019-01-26T13:35:23.568Z,3.30
2019-01-26T13:37:54.611Z,3.30
2019-01-26T13:40:27.760Z,3.30
2019-01-26T13:42:58.683Z,3.40
2019-01-26T13:45:29.428Z,3.40
2019-01-26T13:48:00.489Z,3.40
2019-01-26T13:50:33.336Z,3.40
2019-01-26T13:53:04.543Z,3.40
2019-01-26T13:55:37.260Z,3.40
2019-01-26T13:58:08.223Z,3.40
2019-01-26T14:00:39.027Z,3.40
2019-01-26T14:03:11.213Z,3.40
2019-01-26T14:05:43.158Z,3.40
2019-01-26T14:08:14.010Z,3.40
2019-01-26T14:10:44.831Z,3.40
2019-01-26T14:13:15.499Z,3.40
2019-01-26T14:15:46.110Z,3.40
2019-01-26T14:18:16.899Z,3.40
2019-01-26T14:20:47.673Z,3.40
2019-01-26T14:23:18.461Z,3.40
2019-01-26T14:25:49.895Z,3.40
2019-01-26T14:28:20.932Z,3.40
2019-01-26T14:30:53.743Z,3.40
2019-01-26T14:33:24.478Z,3.40
2019-01-26T14:35:55.487Z,3.40
2019-01-26T14:38:26.358Z,3.40
2019-01-26T14:40:57.134Z,3.40
2019-01-26T14:43:28.031Z,3.40
2019-01-26T14:45:58.925Z,3.40
2019-01-26T14:48:29.722Z,3.40
2019-01-26T14:51:00.489Z,3.30
2019-01-26T14:53:31.184Z,3.30
2019-01-26T14:56:01.995Z,3.30
2019-01-26T14:58:32.976Z,3.30
2019-01-26T15:01:04.078Z,3.30
2019-01-26T15:03:35.185Z,3.30
2019-01-26T15:06:05.991Z,3.30
2019-01-26T15:08:37.072Z,3.20
2019-01-26T15:11:08.043Z,3.20
2019-01-26T15:13:38.760Z,3.30
2019-01-26T15:16:09.806Z,3.20
2019-01-26T15:18:40.937Z,3.30
2019-01-26T15:21:11.835Z,3.20
2019-01-26T15:23:42.666Z,3.20
2019-01-26T15:26:13.658Z,3.20
2019-01-26T15:28:44.542Z,3.20
2019-01-26T15:31:15.331Z,3.20
2019-01-26T15:33:46.242Z,3.20
2019-01-26T15:36:17.080Z,3.20
2019-01-26T15:38:47.950Z,3.20
2019-01-26T15:41:18.743Z,3.20
2019-01-26T15:43:49.426Z,3.10
2019-01-26T15:46:20.282Z,3.20
2019-01-26T15:48:50.914Z,3.10
2019-01-26T15:51:22.835Z,3.10
2019-01-26T15:53:53.478Z,3.10
2019-01-26T15:56:24.499Z,3.10
2019-01-26T15:58:55.575Z,3.10
2019-01-26T16:01:26.486Z,3.10
2019-01-26T16:03:57.620Z,3.10
2019-01-26T16:06:30.125Z,3.10
2019-01-26T16:09:00.836Z,3.10
2019-01-26T16:11:32.063Z,3.10
2019-01-26T16:14:04.696Z,3.00
2019-01-26T16:16:36.948Z,3.00
2019-01-26T16:19:07.719Z,3.00
2019-01-26T16:21:38.679Z,3.00
2019-01-26T16:24:09.600Z,3.00
2019-01-26T16:26:40.382Z,3.00
2019-01-26T16:29:10.974Z,3.00
2019-01-26T16:31:41.750Z,3.00
2019-01-26T16:34:12.525Z,3.00
2019-01-26T16:36:46.094Z,3.00
2019-01-26T16:39:16.876Z,3.00
2019-01-26T16:41:48.816Z,2.90
2019-01-26T16:44:19.729Z,2.90
2019-01-26T16:46:50.396Z,2.90
2019-01-26T16:49:21.113Z,2.90
2019-01-26T16:51:52.071Z,2.90
2019-01-26T16:54:22.930Z,2.90
2019-01-26T16:56:54.934Z,2.90
2019-01-26T16:59:25.766Z,2.90
2019-01-26T17:01:56.515Z,2.90
2019-01-26T17:04:27.147Z,2.90
2019-01-26T17:06:58.242Z,2.90
2019-01-26T17:09:29.376Z,2.90
2019-01-26T17:12:00.222Z,2.90
2019-01-26T17:14:33.662Z,2.90
2019-01-26T17:17:04.390Z,2.90
2019-01-26T17:19:35.158Z,2.90
2019-01-26T17:22:05.854Z,2.90
2019-01-26T17:24:36.632Z,2.90
2019-01-26T17:27:08.826Z,2.90
2019-01-26T17:29:39.389Z,2.90
2019-01-26T17:32:11.680Z,2.80
2019-01-26T17:34:42.380Z,2.80
2019-01-26T17:37:13.604Z,2.80
2019-01-26T17:39:45.846Z,2.80
2019-01-26T17:42:16.910Z,2.80
2019-01-26T17:44:47.747Z,2.80
2019-01-26T17:47:18.596Z,2.80
2019-01-26T17:49:49.625Z,2.80
2019-01-26T17:52:20.454Z,2.80
2019-01-26T17:54:51.018Z,2.80
2019-01-26T17:57:21.681Z,2.80
2019-01-26T17:59:52.375Z,2.80
2019-01-26T18:02:23.298Z,2.80
2019-01-26T18:04:54.141Z,2.80
2019-01-26T18:07:24.826Z,2.80
2019-01-26T18:09:55.319Z,2.80
2019-01-26T18:12:26.163Z,2.80
2019-01-26T18:14:56.782Z,2.80
2019-01-26T18:17:27.585Z,2.80
2019-01-26T18:19:58.338Z,2.80
2019-01-26T18:22:29.464Z,2.80
2019-01-26T18:25:00.764Z,2.80
2019-01-26T18:27:32.373Z,2.80
2019-01-26T18:30:03.192Z,2.80
2019-01-26T18:32:34.135Z,2.80
2019-01-26T18:35:07.535Z,2.80
2019-01-26T18:37:38.705Z,2.80
2019-01-26T18:40:18.418Z,2.80
2019-01-26T18:42:49.982Z,2.80
2019-01-26T18:45:22.482Z,2.80
2019-01-26T18:47:53.202Z,2.80
2019-01-26T18:50:26.528Z,2.70
2019-01-26T18:52:58.345Z,2.70
2019-01-26T18:55:29.083Z,2.70
2019-01-26T18:57:59.954Z,2.70
2019-01-26T19:00:34.443Z,2.70
2019-01-26T19:03:07.849Z,2.70
2019-01-26T19:05:39.904Z,2.70
2019-01-26T19:08:10.807Z,2.70
2019-01-26T19:10:41.663Z,2.70
2019-01-26T19:13:13.165Z,2.70
2019-01-26T19:15:44.349Z,2.70
2019-01-26T19:18:15.109Z,2.70
2019-01-26T19:20:45.781Z,2.70
2019-01-26T19:23:16.516Z,2.70
2019-01-26T19:25:47.227Z,2.70
2019-01-26T19:28:17.992Z,2.70
2019-01-26T19:30:48.784Z,2.70
2019-01-26T19:33:19.659Z,2.70
2019-01-26T19:35:50.551Z,2.70
2019-01-26T19:38:21.661Z,2.70
2019-01-26T19:40:53.115Z,2.70
2019-01-26T19:43:24.308Z,2.70
2019-01-26T19:45:55.439Z,2.70
2019-01-26T19:48:26.235Z,2.70
2019-01-26T19:50:56.953Z,2.70
2019-01-26T19:53:28.030Z,2.70
2019-01-26T19:55:58.827Z,2.70
2019-01-26T19:58:29.775Z,2.70
2019-01-26T20:01:00.831Z,2.70
2019-01-26T20:03:31.600Z,2.70
2019-01-26T20:06:02.620Z,2.70
2019-01-26T20:08:33.541Z,2.70
2019-01-26T20:11:04.469Z,2.70
2019-01-26T20:13:35.720Z,2.70
2019-01-26T20:16:06.626Z,2.70
2019-01-26T20:18:40.557Z,2.70
2019-01-26T20:21:17.494Z,2.70
2019-01-26T20:23:43.678Z,2.70
2019-01-26T20:26:15.999Z,2.70
2019-01-26T20:28:47.265Z,2.70
2019-01-26T20:31:18.338Z,2.70
2019-01-26T20:33:49.185Z,2.80
2019-01-26T20:36:19.940Z,2.70
2019-01-26T20:38:50.756Z,2.70
2019-01-26T20:41:21.995Z,2.80
2019-01-26T20:43:52.845Z,2.80
2019-01-26T20:46:23.742Z,2.80
2019-01-26T20:48:54.812Z,2.80
2019-01-26T20:51:26.016Z,2.70
2019-01-26T20:53:56.769Z,2.80
2019-01-26T20:56:30.306Z,2.80
2019-01-26T20:59:00.309Z,2.80
2019-01-26T21:01:31.185Z,2.80
2019-01-26T21:04:01.959Z,2.80
2019-01-26T21:06:36.138Z,2.80
2019-01-26T21:09:08.361Z,2.80
2019-01-26T21:11:39.394Z,2.80
2019-01-26T21:14:10.217Z,2.90
2019-01-26T21:16:41.103Z,2.80
2019-01-26T21:19:11.920Z,2.80
2019-01-26T21:21:42.868Z,2.80
2019-01-26T21:24:14.017Z,2.80
2019-01-26T21:26:44.639Z,2.80
2019-01-26T21:29:15.432Z,2.80
2019-01-26T21:31:46.256Z,2.90
2019-01-26T21:34:17.133Z,2.90
2019-01-26T21:36:48.090Z,2.90
2019-01-26T21:39:19.279Z,2.90
2019-01-26T21:41:50.178Z,2.90
2019-01-26T21:44:21.090Z,2.90
2019-01-26T21:46:51.955Z,2.90
2019-01-26T21:49:22.748Z,2.90
2019-01-26T21:51:53.628Z,2.90
2019-01-26T21:54:24.720Z,2.90
2019-01-26T21:56:55.562Z,2.90
2019-01-26T21:59:26.576Z,2.90
2019-01-26T22:01:57.167Z,2.90
2019-01-26T22:04:28.188Z,2.90
2019-01-26T22:07:41.351Z,2.90
2019-01-26T22:10:18.319Z,2.90
2019-01-26T22:12:49.047Z,2.90
2019-01-26T22:15:21.054Z,2.90
2019-01-26T22:17:52.080Z,3.00
2019-01-26T22:20:25.688Z,2.90
2019-01-26T22:22:56.846Z,3.00
2019-01-26T22:25:27.534Z,3.00
2019-01-26T22:27:58.413Z,2.90
2019-01-26T22:30:33.900Z,2.90
2019-01-26T22:33:05.113Z,2.90
2019-01-26T22:35:36.000Z,2.90
2019-01-26T22:38:08.506Z,2.90
2019-01-26T22:40:39.347Z,3.00
2019-01-26T22:43:10.224Z,3.00
2019-01-26T22:45:41.168Z,3.00
2019-01-26T22:48:12.132Z,3.00
2019-01-26T22:50:43.901Z,3.00
2019-01-26T22:53:14.702Z,3.00
2019-01-26T22:55:45.709Z,3.00
2019-01-26T22:58:16.223Z,3.00
2019-01-26T23:00:57.237Z,3.00
2019-01-26T23:03:39.951Z,3.00
2019-01-26T23:06:25.845Z,3.00
2019-01-26T23:08:58.532Z,3.00
2019-01-26T23:11:40.756Z,3.00
2019-01-26T23:14:14.229Z,3.00
2019-01-26T23:16:59.518Z,3.10
2019-01-26T23:19:32.773Z,3.10
2019-01-26T23:22:29.167Z,3.00
2019-01-26T23:25:22.435Z,3.10
2019-01-26T23:28:11.241Z,3.00
2019-01-26T23:30:57.590Z,3.00
2019-01-26T23:33:28.687Z,3.10
2019-01-26T23:35:59.722Z,3.10
2019-01-26T23:38:30.533Z,3.00
2019-01-26T23:41:01.804Z,3.00
2019-01-26T23:43:32.463Z,3.00
2019-01-26T23:46:03.208Z,3.10
2019-01-26T23:48:34.030Z,3.00
2019-01-26T23:51:05.052Z,3.00
2019-01-26T23:53:36.249Z,3.00
2019-01-26T23:56:06.989Z,3.00
2019-01-26T23:58:37.953Z,3.00
